Time;durP1;ratioP1;P1;durP2;ratioP2;P2;SDS_P1;SDS_P2;PMS_P1;PMS_P2;Temp;Humidity;BMP_temperature;BMP_pressure;BME280_temperature;BME280_humidity;BME280_pressure;Samples;Min_cycle;Max_cycle;Signal;HPM_P1;HPM_P2
2022/10/31 00:01:43;;;;;;;22.30;9.30;;;13.60;99.90;;;;;;7406436;19;19914;-88
2022/10/31 00:04:12;;;;;;;20.05;8.95;;;13.60;99.90;;;;;;7406803;19;19929;-88
2022/10/31 00:06:41;;;;;;;17.70;10.23;;;13.60;99.90;;;;;;7407301;19;20336;-88
2022/10/31 00:09:12;;;;;;;18.92;8.98;;;13.70;99.90;;;;;;7409555;19;19919;-88
2022/10/31 00:11:41;;;;;;;25.58;9.23;;;13.70;99.90;;;;;;7403904;19;19934;-88
2022/10/31 00:14:10;;;;;;;19.08;7.53;;;13.70;99.90;;;;;;7409341;19;19925;-88
2022/10/31 00:16:40;;;;;;;19.10;9.70;;;13.70;99.90;;;;;;7406514;19;19915;-87
2022/10/31 00:19:11;;;;;;;21.10;8.68;;;13.70;99.90;;;;;;7407948;19;19922;-88
2022/10/31 00:21:40;;;;;;;17.75;9.32;;;13.60;99.90;;;;;;7406897;19;19922;-88
2022/10/31 00:24:10;;;;;;;15.98;6.57;;;13.70;99.90;;;;;;7409792;19;19907;-88
2022/10/31 00:26:39;;;;;;;17.70;8.90;;;13.70;99.90;;;;;;7405678;19;19951;-87
2022/10/31 00:29:08;;;;;;;15.52;6.53;;;13.70;99.90;;;;;;7405498;19;19919;-88
2022/10/31 00:31:36;;;;;;;13.82;6.93;;;13.80;99.90;;;;;;7404374;19;19919;-88
2022/10/31 00:34:05;;;;;;;20.65;8.20;;;13.80;99.90;;;;;;7405293;19;19919;-88
2022/10/31 00:36:37;;;;;;;21.75;8.68;;;13.70;99.90;;;;;;7409520;19;19926;-88
2022/10/31 00:39:06;;;;;;;16.23;8.10;;;13.70;99.90;;;;;;7405515;19;20247;-88
2022/10/31 00:41:35;;;;;;;18.65;9.20;;;13.70;99.90;;;;;;7405731;19;19911;-88
2022/10/31 00:44:04;;;;;;;21.00;9.38;;;13.70;99.90;;;;;;7405167;19;19938;-88
2022/10/31 00:46:32;;;;;;;23.67;12.05;;;13.70;99.90;;;;;;7405247;19;19914;-88
2022/10/31 00:49:01;;;;;;;18.90;8.10;;;13.80;99.90;;;;;;7404720;19;19915;-88
2022/10/31 00:51:30;;;;;;;23.98;9.90;;;13.80;99.90;;;;;;7407038;19;19922;-87
2022/10/31 00:54:02;;;;;;;22.92;10.65;;;13.70;99.90;;;;;;7402672;19;20529;-88
2022/10/31 00:56:31;;;;;;;15.13;7.13;;;13.60;99.90;;;;;;7403863;19;20549;-88
2022/10/31 00:58:59;;;;;;;22.95;11.48;;;13.60;99.90;;;;;;7404589;19;19926;-88
2022/10/31 01:01:28;;;;;;;26.42;11.77;;;13.60;99.90;;;;;;7404565;19;19974;-87
2022/10/31 01:03:58;;;;;;;;;;;13.60;99.90;;;;;;7407697;19;19917;-88
2022/10/31 01:06:27;;;;;;;20.05;11.55;;;13.60;99.90;;;;;;7408077;19;19923;-88
2022/10/31 01:08:56;;;;;;;18.55;8.07;;;13.50;99.90;;;;;;7404783;19;19918;-88
2022/10/31 01:11:27;;;;;;;22.60;10.40;;;13.50;99.90;;;;;;7404516;19;19922;-88
2022/10/31 01:13:57;;;;;;;22.35;10.73;;;13.40;99.90;;;;;;7404618;19;19915;-88
2022/10/31 01:16:31;;;;;;;14.70;7.88;;;13.40;99.90;;;;;;7404409;19;19915;-88
2022/10/31 01:19:00;;;;;;;17.08;6.43;;;13.40;99.90;;;;;;7402957;19;19915;-87
2022/10/31 01:21:31;;;;;;;21.30;8.13;;;13.40;99.90;;;;;;7406404;19;20286;-88
2022/10/31 01:24:01;;;;;;;17.73;9.23;;;13.40;99.90;;;;;;7405015;19;19951;-87
2022/10/31 01:26:35;;;;;;;21.30;11.30;;;13.40;99.90;;;;;;7404372;19;19927;-88
2022/10/31 01:29:06;;;;;;;19.40;7.88;;;13.30;99.90;;;;;;7406516;19;19925;-88
2022/10/31 01:31:37;;;;;;;18.88;9.00;;;13.20;99.90;;;;;;7402827;19;19914;-88
2022/10/31 01:34:06;;;;;;;22.08;10.27;;;13.20;99.90;;;;;;7406327;19;19922;-88
2022/10/31 01:36:38;;;;;;;19.63;9.00;;;13.20;99.90;;;;;;7403651;19;19911;-87
2022/10/31 01:39:09;;;;;;;21.90;10.57;;;13.10;99.90;;;;;;7405538;19;20347;-87
2022/10/31 01:41:42;;;;;;;21.80;11.05;;;13.10;99.90;;;;;;7403927;19;19919;-88
2022/10/31 01:44:41;;;;;;;19.92;8.90;;;13.00;99.90;;;;;;7403340;19;19919;-88
2022/10/31 01:47:15;;;;;;;19.50;9.48;;;13.00;99.90;;;;;;7403807;19;19918;-88
2022/10/31 01:49:48;;;;;;;18.63;9.80;;;12.90;99.90;;;;;;7402497;19;19921;-88
2022/10/31 01:52:24;;;;;;;16.23;9.82;;;12.90;99.90;;;;;;7406141;19;19918;-87
2022/10/31 01:54:58;;;;;;;19.42;10.65;;;12.80;99.90;;;;;;7403469;19;19918;-88
2022/10/31 01:57:31;;;;;;;24.98;9.98;;;12.80;99.90;;;;;;7402663;19;19913;-87
2022/10/31 02:00:04;;;;;;;19.35;10.00;;;12.80;99.90;;;;;;7403720;19;19923;-88
2022/10/31 02:02:34;;;;;;;16.75;8.60;;;12.80;99.90;;;;;;7404121;19;19919;-88
2022/10/31 02:05:08;;;;;;;22.60;10.07;;;12.80;99.90;;;;;;7405145;19;19914;-88
2022/10/31 02:07:42;;;;;;;16.08;8.32;;;12.80;99.90;;;;;;7405517;19;19922;-88
2022/10/31 02:10:11;;;;;;;19.25;7.70;;;12.90;99.90;;;;;;7404128;19;20570;-87
2022/10/31 02:12:43;;;;;;;23.08;11.73;;;12.90;99.90;;;;;;7401693;19;19925;-88
2022/10/31 02:15:13;;;;;;;20.20;9.50;;;12.90;99.90;;;;;;7404966;19;19926;-88
2022/10/31 02:17:42;;;;;;;21.88;9.60;;;12.90;99.90;;;;;;7405370;19;19919;-89
2022/10/31 02:20:18;;;;;;;22.48;9.40;;;12.90;99.90;;;;;;7403934;19;19916;-88
2022/10/31 02:23:17;;;;;;;23.60;9.45;;;12.90;99.90;;;;;;7402749;19;19918;-87
2022/10/31 02:26:05;;;;;;;21.38;10.18;;;12.90;99.90;;;;;;7405128;19;19923;-88
2022/10/31 02:28:55;;;;;;;21.70;10.38;;;12.80;99.90;;;;;;7405119;19;19919;-87
2022/10/31 02:31:36;;;;;;;22.13;9.90;;;12.70;99.90;;;;;;7400770;19;19915;-88
2022/10/31 02:34:15;;;;;;;23.48;11.18;;;12.60;99.90;;;;;;7404685;19;19925;-88
2022/10/31 02:36:49;;;;;;;21.20;9.95;;;12.60;99.90;;;;;;7411713;19;19930;-88
2022/10/31 02:39:25;;;;;;;23.25;11.25;;;12.50;99.90;;;;;;7408338;19;19919;-88
2022/10/31 02:42:03;;;;;;;21.73;11.23;;;12.50;99.90;;;;;;7408380;19;19922;-88
2022/10/31 02:44:39;;;;;;;26.05;10.23;;;12.50;99.90;;;;;;7408872;19;19926;-87
2022/10/31 02:47:13;;;;;;;;;;;12.40;99.90;;;;;;7411129;19;19925;-88
2022/10/31 02:49:45;;;;;;;;;;;12.30;99.90;;;;;;7412754;19;19918;-88
2022/10/31 02:52:20;;;;;;;24.65;9.40;;;12.30;99.90;;;;;;7406452;19;20256;-88
2022/10/31 02:54:50;;;;;;;24.63;10.50;;;12.30;99.90;;;;;;7408281;19;19918;-88
2022/10/31 02:57:23;;;;;;;25.10;11.23;;;12.20;99.90;;;;;;7407553;19;19914;-87
2022/10/31 02:59:55;;;;;;;22.17;11.45;;;12.20;99.90;;;;;;7407903;19;19918;-89
2022/10/31 03:02:47;;;;;;;26.73;11.70;;;12.10;99.90;;;;;;7407924;19;19914;-88
2022/10/31 03:05:47;;;;;;;23.73;9.48;;;12.10;99.90;;;;;;7407978;19;20257;-88
2022/10/31 03:08:24;;;;;;;20.73;9.35;;;12.10;99.90;;;;;;7407300;19;19914;-88
2022/10/31 03:10:59;;;;;;;21.67;10.15;;;12.00;99.90;;;;;;7407685;19;20341;-88
2022/10/31 03:13:37;;;;;;;24.50;10.40;;;12.00;99.90;;;;;;7411077;19;20333;-88
2022/10/31 03:16:13;;;;;;;26.70;10.38;;;12.00;99.90;;;;;;7407620;19;19914;-88
2022/10/31 03:18:51;;;;;;;21.73;9.85;;;11.90;99.90;;;;;;7406795;19;19932;-88
2022/10/31 03:21:26;;;;;;;18.27;9.50;;;11.80;99.90;;;;;;7410594;19;19911;-88
2022/10/31 03:23:57;;;;;;;26.33;9.65;;;11.60;99.90;;;;;;7407453;19;19918;-88
2022/10/31 03:26:27;;;;;;;21.60;9.70;;;11.50;99.90;;;;;;7407455;19;19914;-88
2022/10/31 03:29:04;;;;;;;16.27;9.05;;;11.40;99.90;;;;;;7407267;19;19925;-88
2022/10/31 03:31:38;;;;;;;19.40;9.35;;;11.40;99.90;;;;;;7405376;19;19915;-88
2022/10/31 03:34:12;;;;;;;19.42;9.70;;;11.20;99.90;;;;;;7410130;19;19919;-88
2022/10/31 03:36:42;;;;;;;21.10;9.88;;;11.10;99.90;;;;;;7407054;19;19929;-88
2022/10/31 03:39:15;;;;;;;19.25;9.93;;;11.10;99.90;;;;;;7407112;19;20355;-88
2022/10/31 03:41:49;;;;;;;21.40;9.30;;;11.00;99.90;;;;;;7410807;19;19934;-88
2022/10/31 03:44:21;;;;;;;16.77;8.65;;;11.00;99.90;;;;;;7406567;19;20341;-87
2022/10/31 03:46:50;;;;;;;23.50;10.10;;;10.90;99.90;;;;;;7406867;19;19921;-87
2022/10/31 03:49:22;;;;;;;21.33;10.70;;;10.80;99.90;;;;;;7406462;19;19919;-88
2022/10/31 03:51:58;;;;;;;17.65;9.00;;;10.70;99.90;;;;;;7406546;19;19915;-87
2022/10/31 03:54:33;;;;;;;20.65;11.10;;;10.70;99.90;;;;;;7405960;19;19916;-88
2022/10/31 03:57:08;;;;;;;22.85;10.63;;;10.70;99.90;;;;;;7405206;19;19922;-88
2022/10/31 03:59:42;;;;;;;21.30;9.32;;;10.60;99.90;;;;;;7407075;19;19970;-87
2022/10/31 04:02:16;;;;;;;26.35;11.02;;;10.50;99.90;;;;;;7407870;19;20366;-87
2022/10/31 04:04:48;;;;;;;16.20;8.57;;;10.50;99.90;;;;;;7410248;19;20618;-87
2022/10/31 04:07:20;;;;;;;19.60;9.40;;;10.40;99.90;;;;;;7406275;19;19922;-87
2022/10/31 04:09:52;;;;;;;20.33;10.30;;;10.40;99.90;;;;;;7406358;19;19921;-87
2022/10/31 04:12:23;;;;;;;20.33;8.68;;;10.40;99.90;;;;;;7405520;19;19915;-88
2022/10/31 04:14:53;;;;;;;21.30;8.88;;;10.40;99.90;;;;;;7410173;19;19923;-87
2022/10/31 04:17:23;;;;;;;;;;;10.30;99.90;;;;;;7408051;19;19926;-88
2022/10/31 04:19:54;;;;;;;18.05;9.23;;;10.30;99.90;;;;;;7405519;19;19922;-88
2022/10/31 04:22:23;;;;;;;21.67;9.90;;;10.20;99.90;;;;;;7406419;19;19982;-88
2022/10/31 04:24:52;;;;;;;22.00;10.30;;;10.20;99.90;;;;;;7407577;19;20256;-88
2022/10/31 04:27:21;;;;;;;20.88;10.02;;;10.20;99.90;;;;;;7407987;19;19914;-87
2022/10/31 04:29:50;;;;;;;22.55;9.43;;;10.20;99.90;;;;;;7406611;19;20588;-87
2022/10/31 04:32:19;;;;;;;20.65;10.18;;;10.20;99.90;;;;;;7406056;19;20010;-87
2022/10/31 04:34:47;;;;;;;20.90;9.18;;;10.10;99.90;;;;;;7409380;19;19978;-88
2022/10/31 04:37:19;;;;;;;18.80;8.80;;;10.10;99.90;;;;;;7405848;19;19925;-87
2022/10/31 04:39:48;;;;;;;17.42;9.10;;;10.00;99.90;;;;;;7407798;19;20272;-88
2022/10/31 04:42:17;;;;;;;19.30;8.93;;;10.00;99.90;;;;;;7405388;19;19915;-87
2022/10/31 04:44:46;;;;;;;19.98;10.82;;;10.00;99.90;;;;;;7406052;19;19917;-88
2022/10/31 04:47:14;;;;;;;22.25;11.60;;;10.00;99.90;;;;;;7405461;19;19918;-88
2022/10/31 04:49:43;;;;;;;21.60;10.60;;;10.00;99.90;;;;;;7407964;19;19919;-88
2022/10/31 04:52:12;;;;;;;18.95;10.00;;;10.00;99.90;;;;;;7407151;19;19919;-88
2022/10/31 04:54:44;;;;;;;20.00;10.32;;;10.00;99.90;;;;;;7404672;19;19922;-88
2022/10/31 04:57:13;;;;;;;21.13;10.60;;;10.00;99.90;;;;;;7401642;19;20024;-88
2022/10/31 04:59:41;;;;;;;18.02;9.27;;;10.00;99.90;;;;;;7404850;19;19991;-88
2022/10/31 05:02:10;;;;;;;16.50;9.43;;;9.90;99.90;;;;;;7408006;19;19986;-88
2022/10/31 05:04:39;;;;;;;18.52;9.75;;;9.90;99.90;;;;;;7404426;19;19918;-88
2022/10/31 05:07:08;;;;;;;15.75;9.20;;;9.90;99.90;;;;;;7405037;19;19918;-88
2022/10/31 05:09:38;;;;;;;11.82;6.82;;;9.80;99.90;;;;;;7404901;19;19934;-87
2022/10/31 05:12:09;;;;;;;13.88;6.72;;;9.80;99.90;;;;;;7404135;19;19924;-87
2022/10/31 05:14:38;;;;;;;42.58;7.40;;;9.80;99.90;;;;;;7404929;19;19922;-87
2022/10/31 05:17:07;;;;;;;19.33;6.15;;;9.70;99.90;;;;;;7404486;19;20272;-87
2022/10/31 05:19:36;;;;;;;13.63;6.13;;;9.70;99.90;;;;;;7403609;19;19951;-88
2022/10/31 05:22:05;;;;;;;13.10;6.95;;;9.60;99.90;;;;;;7404152;19;20274;-88
2022/10/31 05:24:33;;;;;;;9.85;6.32;;;9.60;99.90;;;;;;7404403;19;21663;-88
2022/10/31 05:27:02;;;;;;;10.18;6.82;;;9.60;99.90;;;;;;7408333;19;19922;-87
2022/10/31 05:29:34;;;;;;;17.25;8.90;;;9.60;99.90;;;;;;7403769;19;19914;-87
2022/10/31 05:32:03;;;;;;;15.98;8.88;;;9.60;99.90;;;;;;7404403;19;19919;-88
2022/10/31 05:34:32;;;;;;;13.77;7.53;;;9.70;99.90;;;;;;7404108;19;20292;-87
2022/10/31 05:37:00;;;;;;;12.30;7.85;;;9.70;99.90;;;;;;7403784;19;19925;-88
2022/10/31 05:39:29;;;;;;;11.38;6.65;;;9.60;99.90;;;;;;7404448;19;19926;-87
2022/10/31 05:41:58;;;;;;;11.23;6.53;;;9.60;99.90;;;;;;7403946;19;19915;-87
2022/10/31 05:44:27;;;;;;;16.60;7.88;;;9.60;99.90;;;;;;7406806;19;19918;-87
2022/10/31 05:46:59;;;;;;;13.25;8.73;;;9.60;99.90;;;;;;7405606;19;19990;-88
2022/10/31 05:49:27;;;;;;;11.05;7.63;;;9.60;99.90;;;;;;7403171;19;19914;-88
2022/10/31 05:51:56;;;;;;;16.00;7.55;;;9.60;99.90;;;;;;7403538;19;19910;-87
2022/10/31 05:54:25;;;;;;;11.70;7.32;;;9.50;99.90;;;;;;7403647;19;19926;-88
2022/10/31 05:56:54;;;;;;;14.75;8.02;;;9.50;99.90;;;;;;7402207;19;19922;-87
2022/10/31 05:59:23;;;;;;;12.05;7.97;;;9.50;99.90;;;;;;7404456;19;20328;-87
2022/10/31 06:01:52;;;;;;;13.85;7.00;;;9.60;99.90;;;;;;7403607;19;19978;-87
2022/10/31 06:04:24;;;;;;;13.07;7.88;;;9.50;99.90;;;;;;7403112;19;19918;-88
2022/10/31 06:06:53;;;;;;;14.07;8.27;;;9.50;99.90;;;;;;7403230;19;19936;-87
2022/10/31 06:09:21;;;;;;;13.85;7.93;;;9.60;99.90;;;;;;7405591;19;20405;-87
2022/10/31 06:11:51;;;;;;;13.80;8.88;;;9.60;99.90;;;;;;7410018;19;19984;-88
2022/10/31 06:14:20;;;;;;;16.77;8.07;;;9.60;99.90;;;;;;7406734;19;19922;-88
2022/10/31 06:16:49;;;;;;;13.82;7.85;;;9.60;99.90;;;;;;7412119;19;19978;-88
2022/10/31 06:19:18;;;;;;;14.18;7.65;;;9.60;99.90;;;;;;7409049;19;20277;-88
2022/10/31 06:21:49;;;;;;;12.20;6.50;;;9.50;99.90;;;;;;7413520;19;19919;-86
2022/10/31 06:24:18;;;;;;;11.90;7.20;;;9.50;99.90;;;;;;7411004;19;19978;-87
2022/10/31 06:26:47;;;;;;;14.77;7.40;;;9.50;99.90;;;;;;7411874;19;19962;-88
2022/10/31 06:29:16;;;;;;;14.00;8.23;;;9.50;99.90;;;;;;7410232;19;19974;-88
2022/10/31 06:31:45;;;;;;;12.98;7.40;;;9.40;99.90;;;;;;7409292;19;20078;-90
2022/10/31 06:34:14;;;;;;;14.60;7.88;;;9.40;99.90;;;;;;7404159;19;19992;-87
2022/10/31 06:36:43;;;;;;;11.65;7.40;;;9.40;99.90;;;;;;7411092;19;19935;-86
2022/10/31 06:39:14;;;;;;;15.00;8.52;;;9.30;99.90;;;;;;7410521;19;19914;-85
2022/10/31 06:41:43;;;;;;;15.13;9.05;;;9.30;99.90;;;;;;7411400;19;19915;-84
2022/10/31 06:44:12;;;;;;;11.50;6.85;;;9.30;99.90;;;;;;7411130;19;19914;-84
2022/10/31 06:46:41;;;;;;;12.05;7.45;;;9.20;99.90;;;;;;7410084;19;19977;-84
2022/10/31 06:49:10;;;;;;;15.82;7.07;;;9.20;99.90;;;;;;7412041;19;19933;-84
2022/10/31 06:51:39;;;;;;;15.13;7.20;;;9.10;99.90;;;;;;7408255;19;19933;-85
2022/10/31 06:54:08;;;;;;;30.00;11.27;;;9.10;99.90;;;;;;7408746;19;19929;-85
2022/10/31 06:56:40;;;;;;;23.83;11.05;;;9.20;99.90;;;;;;7407207;19;19929;-85
2022/10/31 06:59:09;;;;;;;24.17;11.25;;;9.20;99.90;;;;;;7410303;19;19949;-84
2022/10/31 07:01:37;;;;;;;60.78;13.13;;;9.20;99.90;;;;;;7408278;19;19922;-85
2022/10/31 07:04:07;;;;;;;74.82;15.23;;;9.20;99.90;;;;;;7410966;19;19990;-85
2022/10/31 07:06:35;;;;;;;40.95;13.75;;;9.20;99.90;;;;;;7412198;19;19922;-85
2022/10/31 07:09:05;;;;;;;27.27;11.90;;;9.30;99.90;;;;;;7406438;19;19922;-85
2022/10/31 07:11:34;;;;;;;44.75;14.68;;;9.20;99.90;;;;;;7407798;19;19915;-85
2022/10/31 07:14:06;;;;;;;18.45;9.75;;;9.20;99.90;;;;;;7406382;19;19931;-84
2022/10/31 07:16:35;;;;;;;50.60;15.50;;;9.30;99.90;;;;;;7411404;19;19922;-83
2022/10/31 07:19:04;;;;;;;35.08;13.93;;;9.30;99.90;;;;;;7407237;19;20002;-84
2022/10/31 07:21:32;;;;;;;37.60;14.65;;;9.40;99.90;;;;;;7408085;19;20721;-85
2022/10/31 07:24:01;;;;;;;32.83;13.65;;;9.40;99.90;;;;;;7410283;19;19925;-84
2022/10/31 07:26:30;;;;;;;47.97;16.65;;;9.50;99.90;;;;;;7411137;19;19970;-84
2022/10/31 07:28:59;;;;;;;31.60;13.75;;;9.50;99.90;;;;;;7407352;19;19919;-84
2022/10/31 07:31:31;;;;;;;31.08;13.57;;;9.60;99.90;;;;;;7406812;19;20333;-85
2022/10/31 07:34:00;;;;;;;20.45;11.30;;;9.60;99.90;;;;;;7409013;19;20356;-84
2022/10/31 07:36:29;;;;;;;22.48;12.68;;;9.70;99.90;;;;;;7409457;19;20352;-84
2022/10/31 07:39:02;;;;;;;20.60;11.30;;;9.70;99.90;;;;;;7406867;19;20314;-85
2022/10/31 07:41:31;;;;;;;28.00;14.32;;;9.70;99.90;;;;;;7406634;19;20287;-84
2022/10/31 07:44:00;;;;;;;28.88;12.57;;;9.70;99.90;;;;;;7408210;19;19924;-85
2022/10/31 07:46:33;;;;;;;29.23;15.02;;;9.70;99.90;;;;;;7409779;19;19943;-84
2022/10/31 07:49:01;;;;;;;27.55;15.05;;;9.80;99.90;;;;;;7405914;19;19960;-84
2022/10/31 07:51:30;;;;;;;31.58;14.25;;;9.80;99.90;;;;;;7408922;19;19915;-84
2022/10/31 07:53:59;;;;;;;39.45;14.02;;;9.90;99.90;;;;;;7405595;19;19911;-85
2022/10/31 07:56:28;;;;;;;52.60;15.90;;;9.90;99.90;;;;;;7403458;19;20359;-85
2022/10/31 07:58:57;;;;;;;35.55;12.43;;;10.00;99.90;;;;;;7406164;19;19915;-84
2022/10/31 08:01:26;;;;;;;50.22;14.63;;;10.00;99.90;;;;;;7409423;19;19940;-85
2022/10/31 08:03:57;;;;;;;83.00;15.38;;;10.00;99.90;;;;;;7409215;19;19926;-85
2022/10/31 08:06:26;;;;;;;53.08;15.38;;;10.10;99.90;;;;;;7408816;19;19925;-85
2022/10/31 08:08:55;;;;;;;43.28;14.88;;;10.10;99.90;;;;;;7407931;19;20348;-85
2022/10/31 08:11:24;;;;;;;97.55;16.42;;;10.20;99.90;;;;;;7409076;19;19922;-84
2022/10/31 08:13:53;;;;;;;56.00;13.00;;;10.30;99.90;;;;;;7407573;19;19922;-85
2022/10/31 08:16:22;;;;;;;46.17;13.23;;;10.30;99.90;;;;;;7408185;19;19914;-85
2022/10/31 08:18:53;;;;;;;45.15;10.85;;;10.40;99.90;;;;;;7409803;19;19922;-85
2022/10/31 08:21:24;;;;;;;36.10;11.35;;;10.50;99.90;;;;;;7408050;19;19920;-85
2022/10/31 08:23:53;;;;;;;27.65;10.68;;;10.50;99.90;;;;;;7409166;19;19970;-85
2022/10/31 08:26:22;;;;;;;33.22;10.43;;;10.50;99.90;;;;;;7407388;19;19914;-84
2022/10/31 08:28:54;;;;;;;38.67;11.70;;;10.50;99.90;;;;;;7405932;19;19932;-85
2022/10/31 08:31:25;;;;;;;20.45;10.60;;;10.50;99.90;;;;;;7402796;19;19923;-84
2022/10/31 08:33:55;;;;;;;18.70;10.70;;;10.50;99.90;;;;;;7405790;19;19922;-85
2022/10/31 08:36:26;;;;;;;18.65;12.77;;;10.60;99.90;;;;;;7406014;19;20272;-85
2022/10/31 08:38:55;;;;;;;16.90;10.57;;;10.60;99.90;;;;;;7408568;19;19922;-84
2022/10/31 08:41:25;;;;;;;19.70;12.05;;;10.70;99.90;;;;;;7405108;19;20261;-84
2022/10/31 08:43:54;;;;;;;24.17;13.25;;;10.80;99.90;;;;;;7406199;19;19947;-84
2022/10/31 08:46:23;;;;;;;25.20;11.77;;;10.90;99.90;;;;;;7408663;19;20347;-84
2022/10/31 08:48:52;;;;;;;23.83;11.40;;;11.10;99.90;;;;;;7408234;19;20252;-84
2022/10/31 08:51:20;;;;;;;27.70;11.52;;;11.30;99.90;;;;;;7409549;19;20295;-84
2022/10/31 08:53:52;;;;;;;17.58;10.88;;;11.40;99.90;;;;;;7404486;19;19940;-84
2022/10/31 08:56:22;;;;;;;21.88;13.50;;;11.50;99.90;;;;;;7408316;19;19933;-84
2022/10/31 08:58:50;;;;;;;;;;;11.40;99.90;;;;;;7409294;19;19940;-84
2022/10/31 09:01:19;;;;;;;688.38;152.27;;;11.50;99.90;;;;;;7409093;19;20264;-84
2022/10/31 09:03:48;;;;;;;20.83;13.88;;;11.60;99.90;;;;;;7403904;19;19911;-84
2022/10/31 09:06:17;;;;;;;20.75;13.35;;;11.60;99.90;;;;;;7404926;19;19914;-85
2022/10/31 09:08:46;;;;;;;22.83;13.50;;;11.60;99.90;;;;;;7407491;19;19928;-84
2022/10/31 09:11:17;;;;;;;22.48;13.05;;;11.70;99.90;;;;;;7407649;19;19922;-84
2022/10/31 09:13:46;;;;;;;52.90;16.70;;;11.80;99.90;;;;;;7406724;19;19926;-84
2022/10/31 09:16:15;;;;;;;24.42;13.57;;;11.90;99.90;;;;;;7404808;19;19919;-84
2022/10/31 09:18:45;;;;;;;26.88;15.52;;;12.00;99.90;;;;;;7406495;19;19911;-84
2022/10/31 09:21:13;;;;;;;25.70;14.45;;;12.10;99.90;;;;;;7408350;19;20347;-84
2022/10/31 09:23:42;;;;;;;28.67;14.20;;;12.20;99.90;;;;;;7404115;19;19925;-85
2022/10/31 09:26:11;;;;;;;29.95;15.32;;;12.30;99.90;;;;;;7402199;19;19918;-85
2022/10/31 09:28:44;;;;;;;26.63;13.80;;;12.40;99.90;;;;;;7405676;19;19935;-85
2022/10/31 09:31:13;;;;;;;23.98;13.60;;;12.50;99.90;;;;;;7404064;19;19934;-84
2022/10/31 09:33:42;;;;;;;26.55;16.27;;;12.60;99.90;;;;;;7404923;19;20352;-84
2022/10/31 09:36:11;;;;;;;25.65;15.40;;;12.80;99.90;;;;;;7404799;19;19926;-85
2022/10/31 09:38:40;;;;;;;26.50;14.60;;;12.90;99.90;;;;;;7406191;19;20272;-85
2022/10/31 09:41:19;;;;;;;23.67;13.48;;;13.10;99.90;;;;;;7402482;19;19921;-85
2022/10/31 09:43:59;;;;;;;21.77;13.32;;;13.20;99.90;;;;;;7409772;19;20242;-85
2022/10/31 09:46:42;;;;;;;20.33;13.32;;;13.30;99.90;;;;;;7410644;19;20340;-85
2022/10/31 09:49:35;;;;;;;22.88;13.95;;;13.50;99.90;;;;;;7412277;19;19925;-85
2022/10/31 09:52:11;;;;;;;22.15;14.15;;;13.60;99.90;;;;;;7412141;19;20351;-84
2022/10/31 09:54:45;;;;;;;22.05;13.75;;;13.60;99.90;;;;;;7409670;19;19922;-85
2022/10/31 09:57:17;;;;;;;22.50;14.60;;;13.70;99.90;;;;;;7408449;19;19943;-85
2022/10/31 09:59:50;;;;;;;22.75;14.23;;;13.80;99.90;;;;;;7408409;19;19915;-85
2022/10/31 10:02:26;;;;;;;22.02;12.90;;;13.90;99.90;;;;;;7410130;19;19914;-85
2022/10/31 10:04:59;;;;;;;23.38;13.88;;;14.00;99.90;;;;;;7412313;19;19926;-85
2022/10/31 10:07:39;;;;;;;22.90;13.98;;;14.10;99.90;;;;;;7410081;19;19922;-85
2022/10/31 10:10:17;;;;;;;142.10;18.48;;;14.20;99.90;;;;;;7409178;19;20272;-85
2022/10/31 10:13:16;;;;;;;19.63;11.07;;;14.40;99.90;;;;;;7409682;19;19919;-84
2022/10/31 10:16:15;;;;;;;19.77;10.50;;;14.50;99.90;;;;;;7408508;19;19951;-85
2022/10/31 10:19:02;;;;;;;19.67;11.23;;;14.60;99.90;;;;;;7411025;19;19919;-85
2022/10/31 10:21:44;;;;;;;19.63;9.93;;;14.70;99.90;;;;;;7409066;19;19919;-84
2022/10/31 10:24:25;;;;;;;17.10;8.77;;;14.70;99.90;;;;;;7409205;19;20011;-85
2022/10/31 10:27:02;;;;;;;18.08;10.13;;;14.70;99.90;;;;;;7409253;19;19921;-85
2022/10/31 10:29:40;;;;;;;19.90;10.27;;;14.80;99.90;;;;;;7412440;19;19915;-85
2022/10/31 10:32:20;;;;;;;15.55;10.15;;;14.90;99.90;;;;;;7411885;19;19914;-85
2022/10/31 10:34:53;;;;;;;16.30;9.65;;;15.00;99.90;;;;;;7407740;19;19915;-85
2022/10/31 10:37:31;;;;;;;18.52;9.55;;;15.00;99.90;;;;;;7410406;19;19910;-85
2022/10/31 10:40:09;;;;;;;19.70;10.13;;;15.00;99.90;;;;;;7407868;19;19914;-85
2022/10/31 10:48:18;;;;;;;17.35;9.18;;;15.00;99.90;;;;;;7411176;19;19961;-85
2022/10/31 10:50:50;;;;;;;16.70;9.00;;;14.90;99.90;;;;;;7408022;19;19923;-84
2022/10/31 10:53:35;;;;;;;15.85;9.43;;;15.00;99.90;;;;;;7411321;19;19918;-84
2022/10/31 10:56:14;;;;;;;18.15;10.50;;;15.00;99.90;;;;;;7406404;19;19918;-85
2022/10/31 10:58:44;;;;;;;19.60;11.07;;;15.10;99.90;;;;;;7409962;19;19990;-85
2022/10/31 11:01:15;;;;;;;15.13;9.40;;;15.20;99.90;;;;;;7407729;19;19914;-84
2022/10/31 11:03:47;;;;;;;19.52;11.20;;;15.30;99.90;;;;;;7410250;19;19925;-84
2022/10/31 11:06:22;;;;;;;17.15;9.20;;;15.40;99.90;;;;;;7410972;19;19922;-85
2022/10/31 11:08:51;;;;;;;18.33;10.07;;;15.50;99.90;;;;;;7408602;19;19922;-84
2022/10/31 11:11:29;;;;;;;18.52;8.57;;;15.50;99.90;;;;;;7410692;19;19933;-86
2022/10/31 11:14:04;;;;;;;15.50;8.98;;;15.50;99.90;;;;;;7409641;19;20372;-84
2022/10/31 11:16:37;;;;;;;17.15;10.10;;;15.50;99.90;;;;;;7411627;19;20380;-87
2022/10/31 11:19:19;;;;;;;18.38;8.32;;;15.50;99.90;;;;;;7410603;19;19915;-90
2022/10/31 11:21:49;;;;;;;17.70;9.65;;;15.50;99.90;;;;;;7407562;19;19914;-89
2022/10/31 11:24:20;;;;;;;19.45;11.45;;;15.40;99.90;;;;;;7407197;19;19910;-92
2022/10/31 11:26:51;;;;;;;16.60;11.43;;;15.40;99.90;;;;;;7407711;19;20329;-86
2022/10/31 11:29:24;;;;;;;18.17;9.90;;;15.30;99.90;;;;;;7408403;19;19915;-86
2022/10/31 11:31:55;;;;;;;18.60;9.15;;;15.30;99.90;;;;;;7407955;19;20310;-87
2022/10/31 11:34:32;;;;;;;16.92;9.07;;;15.30;99.90;;;;;;7405960;19;19919;-92
2022/10/31 11:37:07;;;;;;;18.08;10.13;;;15.40;99.90;;;;;;7407936;19;19914;-90
2022/10/31 11:39:43;;;;;;;14.02;8.10;;;15.40;99.90;;;;;;7406676;19;19911;-90
2022/10/31 11:42:12;;;;;;;14.98;8.20;;;15.50;99.90;;;;;;7406954;19;19922;-90
2022/10/31 11:44:45;;;;;;;17.20;8.35;;;15.60;99.90;;;;;;7406827;19;19982;-85
2022/10/31 11:47:17;;;;;;;15.77;10.05;;;15.70;99.90;;;;;;7408480;19;19935;-87
2022/10/31 11:49:50;;;;;;;15.80;7.53;;;15.80;99.90;;;;;;7406719;19;19918;-87
2022/10/31 11:52:23;;;;;;;17.63;7.75;;;15.80;99.90;;;;;;7409031;19;19930;-86
2022/10/31 11:54:55;;;;;;;13.00;7.90;;;15.90;99.90;;;;;;7405302;19;19985;-92
2022/10/31 11:57:30;;;;;;;15.20;7.20;;;15.80;99.90;;;;;;7405575;19;19926;-91
2022/10/31 12:00:03;;;;;;;17.45;7.57;;;15.90;99.90;;;;;;7406944;19;20341;-90
2022/10/31 12:02:32;;;;;;;14.48;6.55;;;15.90;99.90;;;;;;7408938;19;19943;-91
2022/10/31 12:05:10;;;;;;;13.80;6.47;;;15.80;99.90;;;;;;7407768;19;19919;-92
2022/10/31 12:07:39;;;;;;;12.80;7.82;;;15.80;99.90;;;;;;7406295;19;19923;-93
2022/10/31 12:10:13;;;;;;;12.18;5.30;;;15.80;99.90;;;;;;7407874;19;19926;-89
2022/10/31 12:12:54;;;;;;;12.38;6.40;;;15.80;99.90;;;;;;7409701;19;19943;-91
2022/10/31 12:15:33;;;;;;;12.07;6.25;;;15.80;99.90;;;;;;7404850;19;19936;-85
2022/10/31 12:18:25;;;;;;;16.00;7.93;;;15.70;99.90;;;;;;7409506;19;19935;-85
2022/10/31 12:21:14;;;;;;;14.63;7.90;;;15.70;99.90;;;;;;7407102;19;19925;-89
2022/10/31 12:23:53;;;;;;;13.35;6.43;;;15.70;99.90;;;;;;7404205;19;19997;-88
2022/10/31 12:26:27;;;;;;;12.32;6.57;;;15.80;99.90;;;;;;7405854;19;20274;-88
2022/10/31 12:29:29;;;;;;;10.98;4.82;;;15.90;99.90;;;;;;7406588;19;19919;-87
2022/10/31 12:32:11;;;;;;;13.95;6.68;;;16.00;99.90;;;;;;7403770;19;19918;-87
2022/10/31 12:35:04;;;;;;;12.40;6.05;;;16.20;99.90;;;;;;7404970;19;19918;-85
2022/10/31 12:37:48;;;;;;;12.13;5.95;;;16.30;99.90;;;;;;7406363;19;19925;-86
2022/10/31 12:40:39;;;;;;;13.60;5.93;;;16.40;99.90;;;;;;7408021;19;19922;-87
2022/10/31 12:43:19;;;;;;;10.95;5.47;;;16.40;99.90;;;;;;7406191;19;19911;-87
2022/10/31 12:45:57;;;;;;;12.82;5.38;;;16.40;99.90;;;;;;7405271;19;19914;-87
2022/10/31 12:49:01;;;;;;;9.68;5.60;;;16.30;99.90;;;;;;7405640;19;19939;-86
2022/10/31 12:51:40;;;;;;;12.20;5.90;;;16.30;99.90;;;;;;7405078;19;19914;-86
2022/10/31 12:54:32;;;;;;;13.77;6.38;;;16.30;99.90;;;;;;7406053;19;19919;-86
2022/10/31 12:57:09;;;;;;;12.43;5.72;;;16.20;99.90;;;;;;7407428;19;19914;-86
2022/10/31 12:59:42;;;;;;;12.18;7.13;;;16.20;99.90;;;;;;7405275;19;19911;-87
2022/10/31 13:02:21;;;;;;;11.88;6.18;;;16.10;99.90;;;;;;7405239;19;19918;-86
2022/10/31 13:04:54;;;;;;;14.25;6.63;;;16.10;99.90;;;;;;7405500;19;19919;-86
2022/10/31 13:07:28;;;;;;;12.55;6.32;;;16.10;99.90;;;;;;7404659;19;19917;-87
2022/10/31 13:10:05;;;;;;;11.88;5.50;;;16.10;99.90;;;;;;7407017;19;20334;-86